sensor_id;sensor_type;location;lat;lon;timestamp;temperature;humidity
11446;DHT22;5779;64.178;15.432;2023-04-25T00:00:27;-1.10;99.90
11446;DHT22;5779;64.178;15.432;2023-04-25T00:03:16;-1.00;99.90
11446;DHT22;5779;64.178;15.432;2023-04-25T00:06:03;-0.90;99.90
11446;DHT22;5779;64.178;15.432;2023-04-25T00:08:50;-0.90;99.90
11446;DHT22;5779;64.178;15.432;2023-04-25T00:11:37;-0.90;99.90
11446;DHT22;5779;64.178;15.432;2023-04-25T00:14:23;-0.90;99.90
11446;DHT22;5779;64.178;15.432;2023-04-25T00:17:10;-0.80;99.90
11446;DHT22;5779;64.178;15.432;2023-04-25T00:19:59;-0.80;99.90
11446;DHT22;5779;64.178;15.432;2023-04-25T00:22:46;-0.80;99.90
11446;DHT22;5779;64.178;15.432;2023-04-25T00:25:33;-0.90;99.90
11446;DHT22;5779;64.178;15.432;2023-04-25T00:28:20;-0.90;99.90
11446;DHT22;5779;64.178;15.432;2023-04-25T00:31:07;-0.70;99.90
11446;DHT22;5779;64.178;15.432;2023-04-25T00:33:54;-0.80;99.90
11446;DHT22;5779;64.178;15.432;2023-04-25T00:36:42;-0.80;99.90
11446;DHT22;5779;64.178;15.432;2023-04-25T00:39:30;-0.80;99.90
11446;DHT22;5779;64.178;15.432;2023-04-25T00:42:16;-0.80;99.90
11446;DHT22;5779;64.178;15.432;2023-04-25T00:45:06;-0.80;99.90
11446;DHT22;5779;64.178;15.432;2023-04-25T00:47:53;-0.90;99.90
11446;DHT22;5779;64.178;15.432;2023-04-25T00:50:41;-1.00;99.90
11446;DHT22;5779;64.178;15.432;2023-04-25T00:53:30;-1.00;99.90
11446;DHT22;5779;64.178;15.432;2023-04-25T00:56:17;-0.90;99.90
11446;DHT22;5779;64.178;15.432;2023-04-25T00:59:05;-0.80;99.90
11446;DHT22;5779;64.178;15.432;2023-04-25T01:01:52;-0.80;99.90
11446;DHT22;5779;64.178;15.432;2023-04-25T01:04:39;-0.90;99.90
11446;DHT22;5779;64.178;15.432;2023-04-25T01:07:26;-0.90;99.90
11446;DHT22;5779;64.178;15.432;2023-04-25T01:10:14;-0.90;99.90
11446;DHT22;5779;64.178;15.432;2023-04-25T01:13:01;-0.90;99.90
11446;DHT22;5779;64.178;15.432;2023-04-25T01:15:48;-0.70;99.90
11446;DHT22;5779;64.178;15.432;2023-04-25T01:18:35;-0.80;99.90
11446;DHT22;5779;64.178;15.432;2023-04-25T01:21:24;-0.70;99.90
11446;DHT22;5779;64.178;15.432;2023-04-25T01:24:13;-0.80;99.90
11446;DHT22;5779;64.178;15.432;2023-04-25T01:27:00;-0.80;99.90
11446;DHT22;5779;64.178;15.432;2023-04-25T01:29:47;-0.80;99.90
11446;DHT22;5779;64.178;15.432;2023-04-25T01:32:36;-0.80;99.90
11446;DHT22;5779;64.178;15.432;2023-04-25T01:35:24;-0.80;99.90
11446;DHT22;5779;64.178;15.432;2023-04-25T01:38:14;-0.80;99.90
11446;DHT22;5779;64.178;15.432;2023-04-25T01:41:01;-0.80;99.90
11446;DHT22;5779;64.178;15.432;2023-04-25T01:43:47;-0.80;99.90
11446;DHT22;5779;64.178;15.432;2023-04-25T01:46:35;-0.90;99.90
11446;DHT22;5779;64.178;15.432;2023-04-25T01:49:21;-0.90;99.90
11446;DHT22;5779;64.178;15.432;2023-04-25T01:52:08;-1.00;99.90
11446;DHT22;5779;64.178;15.432;2023-04-25T01:54:57;-1.00;99.90
11446;DHT22;5779;64.178;15.432;2023-04-25T01:57:44;-0.90;99.90
11446;DHT22;5779;64.178;15.432;2023-04-25T02:00:31;-0.90;99.90
11446;DHT22;5779;64.178;15.432;2023-04-25T02:03:18;-0.90;99.90
11446;DHT22;5779;64.178;15.432;2023-04-25T02:06:05;-0.90;99.90
11446;DHT22;5779;64.178;15.432;2023-04-25T02:08:52;-0.70;99.90
11446;DHT22;5779;64.178;15.432;2023-04-25T02:11:40;-0.80;99.90
11446;DHT22;5779;64.178;15.432;2023-04-25T02:14:27;-0.80;99.90
11446;DHT22;5779;64.178;15.432;2023-04-25T02:17:14;-0.80;99.90
11446;DHT22;5779;64.178;15.432;2023-04-25T02:20:01;-0.80;99.90
11446;DHT22;5779;64.178;15.432;2023-04-25T02:22:48;-0.90;99.90
11446;DHT22;5779;64.178;15.432;2023-04-25T02:25:35;-0.90;99.90
11446;DHT22;5779;64.178;15.432;2023-04-25T02:28:23;-1.00;99.90
11446;DHT22;5779;64.178;15.432;2023-04-25T02:31:10;-1.00;99.90
11446;DHT22;5779;64.178;15.432;2023-04-25T02:33:57;-1.00;99.90
11446;DHT22;5779;64.178;15.432;2023-04-25T02:36:44;-1.20;99.90
11446;DHT22;5779;64.178;15.432;2023-04-25T02:39:31;-1.00;99.90
11446;DHT22;5779;64.178;15.432;2023-04-25T02:42:18;-1.00;99.90
11446;DHT22;5779;64.178;15.432;2023-04-25T02:45:07;-1.10;99.90
11446;DHT22;5779;64.178;15.432;2023-04-25T02:47:54;-1.10;99.90
11446;DHT22;5779;64.178;15.432;2023-04-25T02:50:41;-1.00;99.90
11446;DHT22;5779;64.178;15.432;2023-04-25T02:53:28;-1.00;99.90
11446;DHT22;5779;64.178;15.432;2023-04-25T02:56:15;-1.10;99.90
11446;DHT22;5779;64.178;15.432;2023-04-25T02:59:02;-1.10;99.90
11446;DHT22;5779;64.178;15.432;2023-04-25T03:01:50;-1.00;99.90
11446;DHT22;5779;64.178;15.432;2023-04-25T03:04:37;-1.10;99.90
11446;DHT22;5779;64.178;15.432;2023-04-25T03:07:24;-1.20;99.90
11446;DHT22;5779;64.178;15.432;2023-04-25T03:10:12;-1.10;99.90
11446;DHT22;5779;64.178;15.432;2023-04-25T03:12:59;-1.10;99.90
11446;DHT22;5779;64.178;15.432;2023-04-25T03:15:46;-1.20;99.90
11446;DHT22;5779;64.178;15.432;2023-04-25T03:18:34;-1.20;99.90
11446;DHT22;5779;64.178;15.432;2023-04-25T03:21:21;-1.30;99.90
11446;DHT22;5779;64.178;15.432;2023-04-25T03:24:08;-1.40;99.90
11446;DHT22;5779;64.178;15.432;2023-04-25T03:26:56;-1.40;99.90
11446;DHT22;5779;64.178;15.432;2023-04-25T03:29:43;-1.40;99.90
11446;DHT22;5779;64.178;15.432;2023-04-25T03:32:30;-1.40;99.90
11446;DHT22;5779;64.178;15.432;2023-04-25T03:35:18;-1.40;99.90
11446;DHT22;5779;64.178;15.432;2023-04-25T03:38:05;-1.40;99.90
11446;DHT22;5779;64.178;15.432;2023-04-25T03:40:52;-1.40;99.90
11446;DHT22;5779;64.178;15.432;2023-04-25T03:43:39;-1.40;99.90
11446;DHT22;5779;64.178;15.432;2023-04-25T03:46:26;-1.50;99.90
11446;DHT22;5779;64.178;15.432;2023-04-25T03:49:13;-1.50;99.90
11446;DHT22;5779;64.178;15.432;2023-04-25T03:52:01;-1.70;99.90
11446;DHT22;5779;64.178;15.432;2023-04-25T03:54:49;-1.60;99.90
11446;DHT22;5779;64.178;15.432;2023-04-25T03:57:36;-1.50;99.90
11446;DHT22;5779;64.178;15.432;2023-04-25T04:00:22;-1.40;99.90
11446;DHT22;5779;64.178;15.432;2023-04-25T04:03:09;-1.40;99.90
11446;DHT22;5779;64.178;15.432;2023-04-25T04:05:57;-1.40;99.90
11446;DHT22;5779;64.178;15.432;2023-04-25T04:08:45;-1.50;99.90
11446;DHT22;5779;64.178;15.432;2023-04-25T04:11:32;-1.50;99.90
11446;DHT22;5779;64.178;15.432;2023-04-25T04:14:19;-1.40;99.90
11446;DHT22;5779;64.178;15.432;2023-04-25T04:17:06;-1.40;99.90
11446;DHT22;5779;64.178;15.432;2023-04-25T04:19:53;-1.40;99.90
11446;DHT22;5779;64.178;15.432;2023-04-25T04:22:40;-1.30;99.90
11446;DHT22;5779;64.178;15.432;2023-04-25T04:25:28;-1.30;99.90
11446;DHT22;5779;64.178;15.432;2023-04-25T04:28:15;-1.40;99.90
11446;DHT22;5779;64.178;15.432;2023-04-25T04:31:03;-1.40;99.90
11446;DHT22;5779;64.178;15.432;2023-04-25T04:33:50;-1.40;99.90
11446;DHT22;5779;64.178;15.432;2023-04-25T04:36:36;-1.40;99.90
11446;DHT22;5779;64.178;15.432;2023-04-25T04:39:25;-1.50;99.90
11446;DHT22;5779;64.178;15.432;2023-04-25T04:42:13;-1.50;99.90
11446;DHT22;5779;64.178;15.432;2023-04-25T04:45:00;-1.50;99.90
11446;DHT22;5779;64.178;15.432;2023-04-25T04:47:49;-1.50;99.90
11446;DHT22;5779;64.178;15.432;2023-04-25T04:50:36;-1.50;99.90
11446;DHT22;5779;64.178;15.432;2023-04-25T04:53:23;-1.40;99.90
11446;DHT22;5779;64.178;15.432;2023-04-25T04:56:10;-1.30;99.90
11446;DHT22;5779;64.178;15.432;2023-04-25T04:58:59;-1.50;99.90
11446;DHT22;5779;64.178;15.432;2023-04-25T05:01:46;-1.30;99.90
11446;DHT22;5779;64.178;15.432;2023-04-25T05:04:33;-1.10;99.90
11446;DHT22;5779;64.178;15.432;2023-04-25T05:07:20;-1.10;99.90
11446;DHT22;5779;64.178;15.432;2023-04-25T05:10:08;-1.30;99.90
11446;DHT22;5779;64.178;15.432;2023-04-25T05:12:56;-1.30;99.90
11446;DHT22;5779;64.178;15.432;2023-04-25T05:15:44;-1.40;99.90
11446;DHT22;5779;64.178;15.432;2023-04-25T05:18:31;-1.30;99.90
11446;DHT22;5779;64.178;15.432;2023-04-25T05:21:18;-1.30;99.90
11446;DHT22;5779;64.178;15.432;2023-04-25T05:24:05;-1.30;99.90
11446;DHT22;5779;64.178;15.432;2023-04-25T05:26:52;-1.30;99.90
11446;DHT22;5779;64.178;15.432;2023-04-25T05:29:39;-1.40;99.90
11446;DHT22;5779;64.178;15.432;2023-04-25T05:32:27;-1.40;99.90
11446;DHT22;5779;64.178;15.432;2023-04-25T05:35:14;-1.30;99.90
11446;DHT22;5779;64.178;15.432;2023-04-25T05:38:01;-1.20;99.90
11446;DHT22;5779;64.178;15.432;2023-04-25T05:40:47;-1.20;99.90
11446;DHT22;5779;64.178;15.432;2023-04-25T05:43:34;-1.20;99.90
11446;DHT22;5779;64.178;15.432;2023-04-25T05:46:21;-1.30;99.90
11446;DHT22;5779;64.178;15.432;2023-04-25T05:49:09;-1.30;99.90
11446;DHT22;5779;64.178;15.432;2023-04-25T05:51:56;-1.30;99.90
11446;DHT22;5779;64.178;15.432;2023-04-25T05:54:43;-1.10;99.90
11446;DHT22;5779;64.178;15.432;2023-04-25T05:57:30;-1.10;99.90
11446;DHT22;5779;64.178;15.432;2023-04-25T06:00:17;-1.20;99.90
11446;DHT22;5779;64.178;15.432;2023-04-25T06:03:04;-1.30;99.90
11446;DHT22;5779;64.178;15.432;2023-04-25T06:05:54;-1.20;99.90
11446;DHT22;5779;64.178;15.432;2023-04-25T06:08:40;-1.20;99.90
11446;DHT22;5779;64.178;15.432;2023-04-25T06:11:27;-1.10;99.90
11446;DHT22;5779;64.178;15.432;2023-04-25T06:14:14;-1.00;99.90
11446;DHT22;5779;64.178;15.432;2023-04-25T06:17:02;-1.10;99.90
11446;DHT22;5779;64.178;15.432;2023-04-25T06:19:51;-1.10;99.90
11446;DHT22;5779;64.178;15.432;2023-04-25T06:22:40;-1.10;99.90
11446;DHT22;5779;64.178;15.432;2023-04-25T06:25:26;-1.20;99.90
11446;DHT22;5779;64.178;15.432;2023-04-25T06:28:13;-1.10;99.90
11446;DHT22;5779;64.178;15.432;2023-04-25T06:31:00;-0.90;99.90
11446;DHT22;5779;64.178;15.432;2023-04-25T06:33:47;-0.90;99.90
11446;DHT22;5779;64.178;15.432;2023-04-25T06:36:34;-0.80;99.90
11446;DHT22;5779;64.178;15.432;2023-04-25T06:39:23;-0.90;99.90
11446;DHT22;5779;64.178;15.432;2023-04-25T06:42:10;-0.80;99.90
11446;DHT22;5779;64.178;15.432;2023-04-25T06:44:57;-0.70;99.90
11446;DHT22;5779;64.178;15.432;2023-04-25T06:47:43;-0.60;99.90
11446;DHT22;5779;64.178;15.432;2023-04-25T06:50:30;-0.70;99.90
11446;DHT22;5779;64.178;15.432;2023-04-25T06:53:17;-0.60;99.90
11446;DHT22;5779;64.178;15.432;2023-04-25T06:56:06;-0.60;99.90
11446;DHT22;5779;64.178;15.432;2023-04-25T06:58:53;-0.60;99.90
11446;DHT22;5779;64.178;15.432;2023-04-25T07:01:40;-0.70;99.90
11446;DHT22;5779;64.178;15.432;2023-04-25T07:04:27;-0.80;99.90
11446;DHT22;5779;64.178;15.432;2023-04-25T07:07:13;-0.50;99.90
11446;DHT22;5779;64.178;15.432;2023-04-25T07:10:00;-0.50;99.90
11446;DHT22;5779;64.178;15.432;2023-04-25T07:12:48;-0.20;99.90
11446;DHT22;5779;64.178;15.432;2023-04-25T07:15:35;0.00;99.90
11446;DHT22;5779;64.178;15.432;2023-04-25T07:18:22;-0.20;99.90
11446;DHT22;5779;64.178;15.432;2023-04-25T07:21:09;-0.20;99.90
11446;DHT22;5779;64.178;15.432;2023-04-25T07:23:56;-0.10;99.90
11446;DHT22;5779;64.178;15.432;2023-04-25T07:26:43;0.00;99.90
11446;DHT22;5779;64.178;15.432;2023-04-25T07:29:31;-0.20;99.90
11446;DHT22;5779;64.178;15.432;2023-04-25T07:32:20;-0.10;99.90
11446;DHT22;5779;64.178;15.432;2023-04-25T07:35:08;-0.20;99.90
11446;DHT22;5779;64.178;15.432;2023-04-25T07:37:54;-0.10;99.90
11446;DHT22;5779;64.178;15.432;2023-04-25T07:40:41;-0.20;99.90
11446;DHT22;5779;64.178;15.432;2023-04-25T07:43:28;-0.30;99.90
11446;DHT22;5779;64.178;15.432;2023-04-25T07:46:16;-0.30;99.90
11446;DHT22;5779;64.178;15.432;2023-04-25T07:49:03;-0.30;99.90
11446;DHT22;5779;64.178;15.432;2023-04-25T07:51:50;-0.20;99.90
11446;DHT22;5779;64.178;15.432;2023-04-25T07:54:37;0.10;99.90
11446;DHT22;5779;64.178;15.432;2023-04-25T07:57:24;0.30;99.90
11446;DHT22;5779;64.178;15.432;2023-04-25T08:00:12;0.00;99.90
11446;DHT22;5779;64.178;15.432;2023-04-25T08:03:01;-0.10;99.90
11446;DHT22;5779;64.178;15.432;2023-04-25T08:05:48;-0.10;99.90
11446;DHT22;5779;64.178;15.432;2023-04-25T08:08:35;-0.20;99.90
11446;DHT22;5779;64.178;15.432;2023-04-25T08:11:22;-0.20;99.90
11446;DHT22;5779;64.178;15.432;2023-04-25T08:14:09;-0.20;99.90
11446;DHT22;5779;64.178;15.432;2023-04-25T08:16:56;-0.10;99.90
11446;DHT22;5779;64.178;15.432;2023-04-25T08:19:44;-0.20;99.90
11446;DHT22;5779;64.178;15.432;2023-04-25T08:22:31;-0.20;99.90
11446;DHT22;5779;64.178;15.432;2023-04-25T08:25:19;-0.30;99.90
11446;DHT22;5779;64.178;15.432;2023-04-25T08:28:06;-0.30;99.90
11446;DHT22;5779;64.178;15.432;2023-04-25T08:30:52;-0.10;99.90
11446;DHT22;5779;64.178;15.432;2023-04-25T08:33:39;-0.20;99.90
11446;DHT22;5779;64.178;15.432;2023-04-25T08:36:27;0.00;99.90
11446;DHT22;5779;64.178;15.432;2023-04-25T08:39:15;0.10;99.90
11446;DHT22;5779;64.178;15.432;2023-04-25T08:42:04;0.20;99.90
11446;DHT22;5779;64.178;15.432;2023-04-25T08:44:53;0.40;99.90
11446;DHT22;5779;64.178;15.432;2023-04-25T08:47:40;0.30;99.90
11446;DHT22;5779;64.178;15.432;2023-04-25T08:50:28;0.20;99.90
11446;DHT22;5779;64.178;15.432;2023-04-25T08:53:17;0.20;99.90
11446;DHT22;5779;64.178;15.432;2023-04-25T08:56:07;0.10;99.90
11446;DHT22;5779;64.178;15.432;2023-04-25T08:58:55;0.10;99.90
11446;DHT22;5779;64.178;15.432;2023-04-25T09:01:42;0.10;99.90
11446;DHT22;5779;64.178;15.432;2023-04-25T09:04:30;0.50;99.90
11446;DHT22;5779;64.178;15.432;2023-04-25T09:07:17;0.50;99.90
11446;DHT22;5779;64.178;15.432;2023-04-25T09:10:08;0.30;99.90
11446;DHT22;5779;64.178;15.432;2023-04-25T09:13:05;0.00;99.90
11446;DHT22;5779;64.178;15.432;2023-04-25T09:15:55;0.00;99.90
11446;DHT22;5779;64.178;15.432;2023-04-25T09:18:42;0.40;99.90
11446;DHT22;5779;64.178;15.432;2023-04-25T09:21:28;0.50;99.90
11446;DHT22;5779;64.178;15.432;2023-04-25T09:24:15;0.60;99.90
11446;DHT22;5779;64.178;15.432;2023-04-25T09:27:08;0.70;99.90
11446;DHT22;5779;64.178;15.432;2023-04-25T09:29:58;0.90;99.90
11446;DHT22;5779;64.178;15.432;2023-04-25T09:32:45;0.70;99.90
11446;DHT22;5779;64.178;15.432;2023-04-25T09:35:36;0.70;99.90
11446;DHT22;5779;64.178;15.432;2023-04-25T09:38:23;0.90;99.90
11446;DHT22;5779;64.178;15.432;2023-04-25T09:41:10;0.70;99.90
11446;DHT22;5779;64.178;15.432;2023-04-25T09:43:59;0.60;99.90
11446;DHT22;5779;64.178;15.432;2023-04-25T09:46:49;0.80;99.90
11446;DHT22;5779;64.178;15.432;2023-04-25T09:49:40;1.00;99.90
11446;DHT22;5779;64.178;15.432;2023-04-25T09:52:28;1.00;99.90
11446;DHT22;5779;64.178;15.432;2023-04-25T09:55:15;1.60;99.90
11446;DHT22;5779;64.178;15.432;2023-04-25T09:58:04;1.70;99.90
11446;DHT22;5779;64.178;15.432;2023-04-25T10:00:54;1.50;99.90
11446;DHT22;5779;64.178;15.432;2023-04-25T10:03:41;1.30;99.90
11446;DHT22;5779;64.178;15.432;2023-04-25T10:06:29;0.90;99.90
11446;DHT22;5779;64.178;15.432;2023-04-25T10:09:16;1.00;99.90
11446;DHT22;5779;64.178;15.432;2023-04-25T10:12:07;0.90;99.90
11446;DHT22;5779;64.178;15.432;2023-04-25T10:14:54;1.00;99.90
11446;DHT22;5779;64.178;15.432;2023-04-25T10:17:44;0.60;99.90
11446;DHT22;5779;64.178;15.432;2023-04-25T10:20:31;0.80;99.90
11446;DHT22;5779;64.178;15.432;2023-04-25T10:23:18;1.10;99.90
11446;DHT22;5779;64.178;15.432;2023-04-25T10:26:07;0.80;99.90
11446;DHT22;5779;64.178;15.432;2023-04-25T10:28:58;0.60;99.90
11446;DHT22;5779;64.178;15.432;2023-04-25T10:31:46;0.50;99.90
11446;DHT22;5779;64.178;15.432;2023-04-25T10:34:42;0.60;99.90
11446;DHT22;5779;64.178;15.432;2023-04-25T10:37:32;0.50;99.90
11446;DHT22;5779;64.178;15.432;2023-04-25T10:40:22;0.50;99.90
11446;DHT22;5779;64.178;15.432;2023-04-25T10:43:39;0.30;99.90
11446;DHT22;5779;64.178;15.432;2023-04-25T10:46:27;0.30;99.90
11446;DHT22;5779;64.178;15.432;2023-04-25T10:49:30;0.60;99.90
11446;DHT22;5779;64.178;15.432;2023-04-25T10:52:25;1.00;99.90
11446;DHT22;5779;64.178;15.432;2023-04-25T10:55:12;1.20;99.90
11446;DHT22;5779;64.178;15.432;2023-04-25T10:57:59;1.30;99.90
11446;DHT22;5779;64.178;15.432;2023-04-25T11:00:47;1.20;99.90
11446;DHT22;5779;64.178;15.432;2023-04-25T11:03:39;1.20;99.90
11446;DHT22;5779;64.178;15.432;2023-04-25T11:06:32;1.10;99.90
11446;DHT22;5779;64.178;15.432;2023-04-25T11:09:25;1.20;99.90
11446;DHT22;5779;64.178;15.432;2023-04-25T11:12:13;1.30;99.90
11446;DHT22;5779;64.178;15.432;2023-04-25T11:15:01;1.10;99.90
11446;DHT22;5779;64.178;15.432;2023-04-25T11:17:51;1.10;99.90
11446;DHT22;5779;64.178;15.432;2023-04-25T11:20:37;1.00;99.90
11446;DHT22;5779;64.178;15.432;2023-04-25T11:23:25;1.20;99.90
11446;DHT22;5779;64.178;15.432;2023-04-25T11:26:14;1.20;99.90
11446;DHT22;5779;64.178;15.432;2023-04-25T11:29:00;1.30;99.90
11446;DHT22;5779;64.178;15.432;2023-04-25T11:31:47;1.20;99.90
11446;DHT22;5779;64.178;15.432;2023-04-25T11:34:34;1.10;99.90
11446;DHT22;5779;64.178;15.432;2023-04-25T11:37:21;0.80;99.90
11446;DHT22;5779;64.178;15.432;2023-04-25T11:40:09;0.70;99.90
11446;DHT22;5779;64.178;15.432;2023-04-25T11:43:00;0.50;99.90
11446;DHT22;5779;64.178;15.432;2023-04-25T11:45:47;0.50;99.90
11446;DHT22;5779;64.178;15.432;2023-04-25T11:48:38;0.80;99.90
11446;DHT22;5779;64.178;15.432;2023-04-25T11:51:25;0.60;99.90
11446;DHT22;5779;64.178;15.432;2023-04-25T11:54:12;0.50;99.90
11446;DHT22;5779;64.178;15.432;2023-04-25T11:56:59;0.50;99.90
11446;DHT22;5779;64.178;15.432;2023-04-25T11:59:48;0.50;99.90
11446;DHT22;5779;64.178;15.432;2023-04-25T12:02:35;0.10;99.90
11446;DHT22;5779;64.178;15.432;2023-04-25T12:05:25;0.20;99.90
11446;DHT22;5779;64.178;15.432;2023-04-25T12:08:12;0.20;99.90
11446;DHT22;5779;64.178;15.432;2023-04-25T12:10:59;0.40;99.90
11446;DHT22;5779;64.178;15.432;2023-04-25T12:13:51;0.70;99.90
11446;DHT22;5779;64.178;15.432;2023-04-25T12:16:45;0.60;99.90
11446;DHT22;5779;64.178;15.432;2023-04-25T12:19:33;0.80;99.90
11446;DHT22;5779;64.178;15.432;2023-04-25T12:22:21;0.70;99.90
11446;DHT22;5779;64.178;15.432;2023-04-25T12:25:09;0.70;99.90
11446;DHT22;5779;64.178;15.432;2023-04-25T12:28:08;0.80;99.90
11446;DHT22;5779;64.178;15.432;2023-04-25T12:30:56;1.00;99.90
11446;DHT22;5779;64.178;15.432;2023-04-25T12:33:45;0.60;99.90
11446;DHT22;5779;64.178;15.432;2023-04-25T12:36:32;0.50;99.90
11446;DHT22;5779;64.178;15.432;2023-04-25T12:39:21;0.40;99.90
11446;DHT22;5779;64.178;15.432;2023-04-25T12:42:08;0.40;99.90
11446;DHT22;5779;64.178;15.432;2023-04-25T12:44:57;0.60;99.90
11446;DHT22;5779;64.178;15.432;2023-04-25T12:47:43;0.50;99.90
11446;DHT22;5779;64.178;15.432;2023-04-25T12:50:32;0.40;99.90
11446;DHT22;5779;64.178;15.432;2023-04-25T12:53:20;0.30;99.90
11446;DHT22;5779;64.178;15.432;2023-04-25T12:56:07;0.20;99.90
11446;DHT22;5779;64.178;15.432;2023-04-25T12:58:54;0.10;99.90
11446;DHT22;5779;64.178;15.432;2023-04-25T13:01:40;0.10;99.90
11446;DHT22;5779;64.178;15.432;2023-04-25T13:04:28;0.30;99.90
11446;DHT22;5779;64.178;15.432;2023-04-25T13:07:16;0.50;99.90
11446;DHT22;5779;64.178;15.432;2023-04-25T13:10:03;0.40;99.90
11446;DHT22;5779;64.178;15.432;2023-04-25T13:12:50;0.30;99.90
11446;DHT22;5779;64.178;15.432;2023-04-25T13:15:37;0.50;99.90
11446;DHT22;5779;64.178;15.432;2023-04-25T13:18:24;0.50;99.90
11446;DHT22;5779;64.178;15.432;2023-04-25T13:21:12;0.80;99.90
11446;DHT22;5779;64.178;15.432;2023-04-25T13:24:00;1.20;99.90
11446;DHT22;5779;64.178;15.432;2023-04-25T13:26:47;1.20;99.90
11446;DHT22;5779;64.178;15.432;2023-04-25T13:29:34;1.00;99.90
11446;DHT22;5779;64.178;15.432;2023-04-25T13:32:23;1.00;99.90
11446;DHT22;5779;64.178;15.432;2023-04-25T13:35:12;0.90;99.90
11446;DHT22;5779;64.178;15.432;2023-04-25T13:37:58;0.70;99.90
11446;DHT22;5779;64.178;15.432;2023-04-25T13:40:47;0.60;99.90
11446;DHT22;5779;64.178;15.432;2023-04-25T13:43:34;1.10;99.90
11446;DHT22;5779;64.178;15.432;2023-04-25T13:46:21;1.10;99.90
11446;DHT22;5779;64.178;15.432;2023-04-25T13:49:07;1.20;99.90
11446;DHT22;5779;64.178;15.432;2023-04-25T13:51:54;1.30;99.90
11446;DHT22;5779;64.178;15.432;2023-04-25T13:54:41;0.90;99.90
11446;DHT22;5779;64.178;15.432;2023-04-25T13:57:30;0.40;99.90
11446;DHT22;5779;64.178;15.432;2023-04-25T14:00:18;0.60;99.90
11446;DHT22;5779;64.178;15.432;2023-04-25T14:03:05;0.70;99.90
11446;DHT22;5779;64.178;15.432;2023-04-25T14:05:53;0.90;99.90
11446;DHT22;5779;64.178;15.432;2023-04-25T14:08:40;0.60;99.90
11446;DHT22;5779;64.178;15.432;2023-04-25T14:11:27;0.70;99.90
11446;DHT22;5779;64.178;15.432;2023-04-25T14:14:15;0.50;99.90
11446;DHT22;5779;64.178;15.432;2023-04-25T14:17:01;0.50;99.90
11446;DHT22;5779;64.178;15.432;2023-04-25T14:19:49;0.30;99.90
11446;DHT22;5779;64.178;15.432;2023-04-25T14:22:36;0.30;99.90
11446;DHT22;5779;64.178;15.432;2023-04-25T14:25:27;0.40;99.90
11446;DHT22;5779;64.178;15.432;2023-04-25T14:28:14;0.00;99.90
11446;DHT22;5779;64.178;15.432;2023-04-25T14:31:02;0.10;99.90
11446;DHT22;5779;64.178;15.432;2023-04-25T14:33:49;0.20;99.90
11446;DHT22;5779;64.178;15.432;2023-04-25T14:36:36;0.20;99.90
11446;DHT22;5779;64.178;15.432;2023-04-25T14:39:22;0.10;99.90
11446;DHT22;5779;64.178;15.432;2023-04-25T14:42:09;0.00;99.90
11446;DHT22;5779;64.178;15.432;2023-04-25T14:44:56;0.00;99.90
11446;DHT22;5779;64.178;15.432;2023-04-25T14:47:44;0.30;99.90
11446;DHT22;5779;64.178;15.432;2023-04-25T14:50:31;0.50;99.90
11446;DHT22;5779;64.178;15.432;2023-04-25T14:53:18;0.30;99.90
11446;DHT22;5779;64.178;15.432;2023-04-25T14:56:05;0.30;99.90
11446;DHT22;5779;64.178;15.432;2023-04-25T14:58:52;0.30;99.90
11446;DHT22;5779;64.178;15.432;2023-04-25T15:01:39;0.30;99.90
11446;DHT22;5779;64.178;15.432;2023-04-25T15:04:27;0.50;99.90
11446;DHT22;5779;64.178;15.432;2023-04-25T15:07:14;0.50;99.90
11446;DHT22;5779;64.178;15.432;2023-04-25T15:10:01;0.50;99.90
11446;DHT22;5779;64.178;15.432;2023-04-25T15:12:48;0.30;99.90
11446;DHT22;5779;64.178;15.432;2023-04-25T15:15:35;0.00;99.90
11446;DHT22;5779;64.178;15.432;2023-04-25T15:18:22;-0.10;99.90
11446;DHT22;5779;64.178;15.432;2023-04-25T15:21:11;0.00;99.90
11446;DHT22;5779;64.178;15.432;2023-04-25T15:23:57;0.00;99.90
11446;DHT22;5779;64.178;15.432;2023-04-25T15:26:45;0.10;99.90
11446;DHT22;5779;64.178;15.432;2023-04-25T15:29:32;0.00;99.90
11446;DHT22;5779;64.178;15.432;2023-04-25T15:32:18;0.10;99.90
11446;DHT22;5779;64.178;15.432;2023-04-25T15:35:06;0.00;99.90
11446;DHT22;5779;64.178;15.432;2023-04-25T15:37:55;0.00;99.90
11446;DHT22;5779;64.178;15.432;2023-04-25T15:40:41;0.00;99.90
11446;DHT22;5779;64.178;15.432;2023-04-25T15:43:28;-0.20;99.90
11446;DHT22;5779;64.178;15.432;2023-04-25T15:46:15;-0.10;99.90
11446;DHT22;5779;64.178;15.432;2023-04-25T15:49:02;0.00;99.90
11446;DHT22;5779;64.178;15.432;2023-04-25T15:51:49;0.10;99.90
11446;DHT22;5779;64.178;15.432;2023-04-25T15:54:38;0.20;99.90
11446;DHT22;5779;64.178;15.432;2023-04-25T15:57:25;0.20;99.90
11446;DHT22;5779;64.178;15.432;2023-04-25T16:00:13;0.20;99.90
11446;DHT22;5779;64.178;15.432;2023-04-25T16:03:01;0.00;99.90
11446;DHT22;5779;64.178;15.432;2023-04-25T16:05:48;-0.10;99.90
11446;DHT22;5779;64.178;15.432;2023-04-25T16:08:35;-0.30;99.90
11446;DHT22;5779;64.178;15.432;2023-04-25T16:11:23;-0.10;99.90
11446;DHT22;5779;64.178;15.432;2023-04-25T16:14:10;-0.10;99.90
11446;DHT22;5779;64.178;15.432;2023-04-25T16:16:57;-0.30;99.90
11446;DHT22;5779;64.178;15.432;2023-04-25T16:19:44;-0.30;99.90
11446;DHT22;5779;64.178;15.432;2023-04-25T16:22:31;-0.30;99.90
11446;DHT22;5779;64.178;15.432;2023-04-25T16:25:17;-0.20;99.90
11446;DHT22;5779;64.178;15.432;2023-04-25T16:28:07;-0.20;99.90
11446;DHT22;5779;64.178;15.432;2023-04-25T16:30:54;-0.10;99.90
11446;DHT22;5779;64.178;15.432;2023-04-25T16:33:40;0.00;99.90
11446;DHT22;5779;64.178;15.432;2023-04-25T16:36:27;-0.10;99.90
11446;DHT22;5779;64.178;15.432;2023-04-25T16:39:16;-0.20;99.90
11446;DHT22;5779;64.178;15.432;2023-04-25T16:42:03;-0.20;99.90
11446;DHT22;5779;64.178;15.432;2023-04-25T16:44:51;-0.20;99.90
11446;DHT22;5779;64.178;15.432;2023-04-25T16:47:38;-0.40;99.90
11446;DHT22;5779;64.178;15.432;2023-04-25T16:50:25;-0.40;99.90
11446;DHT22;5779;64.178;15.432;2023-04-25T16:53:12;-0.40;99.90
11446;DHT22;5779;64.178;15.432;2023-04-25T16:55:59;-0.30;99.90
11446;DHT22;5779;64.178;15.432;2023-04-25T16:58:46;-0.40;99.90
11446;DHT22;5779;64.178;15.432;2023-04-25T17:01:34;-0.30;99.90
11446;DHT22;5779;64.178;15.432;2023-04-25T17:04:21;-0.30;99.90
11446;DHT22;5779;64.178;15.432;2023-04-25T17:07:08;-0.20;99.90
11446;DHT22;5779;64.178;15.432;2023-04-25T17:09:55;-0.10;99.90
11446;DHT22;5779;64.178;15.432;2023-04-25T17:12:42;-0.20;99.90
11446;DHT22;5779;64.178;15.432;2023-04-25T17:15:29;-0.30;99.90
11446;DHT22;5779;64.178;15.432;2023-04-25T17:18:17;-0.40;99.90
11446;DHT22;5779;64.178;15.432;2023-04-25T17:21:04;-0.50;99.90
11446;DHT22;5779;64.178;15.432;2023-04-25T17:23:51;-0.50;99.90
11446;DHT22;5779;64.178;15.432;2023-04-25T17:26:38;-0.50;99.90
11446;DHT22;5779;64.178;15.432;2023-04-25T17:29:25;-0.50;99.90
11446;DHT22;5779;64.178;15.432;2023-04-25T17:32:12;-0.50;99.90
11446;DHT22;5779;64.178;15.432;2023-04-25T17:35:00;-0.40;99.90
11446;DHT22;5779;64.178;15.432;2023-04-25T17:37:48;-0.60;99.90
11446;DHT22;5779;64.178;15.432;2023-04-25T17:40:35;-0.60;99.90
11446;DHT22;5779;64.178;15.432;2023-04-25T17:43:22;-0.60;99.90
11446;DHT22;5779;64.178;15.432;2023-04-25T17:46:10;-0.70;99.90